Elizabeth Mc Allister — WDB7652 — position and weather

sailwx.info

Track history (hours):
 
Tides and Currents Weather Stations Pressure Air Temp Water Temp Dewpoint Dewpoint Depression Visibility Wind Speed Wind Dir Waves Ship Positions

Elizabeth Mc Allister

Owner: MC ALLISTER TOWING & TRANSPORTATION INC, NEW YORK, NY. More information available from US FCC via Universal Licensing System and Coast Guard Vessel Documentation Center.

Last reported at 2016-May-01 04:33 UTC. Time now 2016-May-01 06:08 UTC.
Position N 40°38' W 074°10'.

Length 31 m.

Type: Tug. MMSI: 362751376.

Date/timePositionNaut miles runAvg speedWind from/ knotsBaromVisibWave heightAir tempDewpointWater temp
2016-May-01 04:33N 40°38' W 074°10'0 0.0
2016-May-01 03:34N 40°38' W 074°10'0 0.0
2016-May-01 02:34N 40°38' W 074°10'0 0.0
2016-May-01 01:34N 40°38' W 074°10'0 0.0
2016-May-01 00:33N 40°38' W 074°10'0 0.0
2016-Apr-30 23:34N 40°38' W 074°10'0 0.0
2016-Apr-30 22:33N 40°38' W 074°10'0 0.0
2016-Apr-30 21:33N 40°38' W 074°10'0 0.0
2016-Apr-30 20:33N 40°38' W 074°10'0 0.0
2016-Apr-30 19:34N 40°38' W 074°10'0 0.0
2016-Apr-30 18:34N 40°38' W 074°10'0 0.0
2016-Apr-30 17:34N 40°38' W 074°10'0 0.0
2016-Apr-30 16:34N 40°38' W 074°10'0 0.0
2016-Apr-30 15:33N 40°38' W 074°10'0 0.0
2016-Apr-30 14:33N 40°38' W 074°10'0 0.0
2016-Apr-30 13:33N 40°38' W 074°10'0 0.0
2016-Apr-30 12:33N 40°38' W 074°10'0 0.0
2016-Apr-30 11:33N 40°38' W 074°10'0 0.0
2016-Apr-30 10:34N 40°38' W 074°10'0 0.0
2016-Apr-30 09:34N 40°38' W 074°10'0 0.0
2016-Apr-30 08:34N 40°38' W 074°10'0 0.0
2016-Apr-30 07:34N 40°38' W 074°10'0 0.0
2016-Apr-30 06:33N 40°38' W 074°10'0 0.0
2016-Apr-30 05:33N 40°38' W 074°10'0 0.0
2016-Apr-30 04:34N 40°38' W 074°10'0 0.0
2016-Apr-30 03:33N 40°38' W 074°10'0 0.0
2016-Apr-30 02:34N 40°38' W 074°10'0 0.0
2016-Apr-30 01:34N 40°38' W 074°10'0 0.0
2016-Apr-30 00:34N 40°38' W 074°10'0 0.0
2016-Apr-29 23:33N 40°38' W 074°10'0 0.0
2016-Apr-29 22:34N 40°38' W 074°10'0 0.0
2016-Apr-29 21:33N 40°38' W 074°10'0 0.0
2016-Apr-29 20:33N 40°38' W 074°10'0 0.0
2016-Apr-29 19:33N 40°38' W 074°10'0 0.0
2016-Apr-29 18:34N 40°38' W 074°10'1 1.3
2016-Apr-29 17:33N 40°40' W 074°09'0 0.0
2016-Apr-29 16:33N 40°40' W 074°09'1 0.8
2016-Apr-29 15:25N 40°39' W 074°09'3 0.9
2016-Apr-29 12:26N 40°37' W 074°12'3 3.2
2016-Apr-29 11:33N 40°39' W 074°09'2 2.1
2016-Apr-29 10:33N 40°41' W 074°09'2 2.1
2016-Apr-29 09:30N 40°39' W 074°08'2 0.3
2016-Apr-29 03:29N 40°38' W 074°10'0 0.0
2016-Apr-29 01:29N 40°38' W 074°10'1 0.5
2016-Apr-28 23:11N 40°39' W 074°08'3 5.1
2016-Apr-28 22:31N 40°38' W 074°04'2 2.3
2016-Apr-28 21:31N 40°39' W 074°07'2 1.3
2016-Apr-28 20:13N 40°39' W 074°09'1 1.5
2016-Apr-28 19:33N 40°40' W 074°09'2 2.0
2016-Apr-28 18:32N 40°42' W 074°08'2 2.2
2016-Apr-28 17:25N 40°39' W 074°09'1 1.3
2016-Apr-28 16:32N 40°38' W 074°10'0 0.0
2016-Apr-28 15:32N 40°38' W 074°10'0 0.0
2016-Apr-28 14:32N 40°38' W 074°10'0 0.0
2016-Apr-28 13:27N 40°38' W 074°10'0 0.0
2016-Apr-28 12:31N 40°38' W 074°10'0 0.0
2016-Apr-28 11:19N 40°38' W 074°10'0 0.0
2016-Apr-28 07:33N 40°38' W 074°10'0 0.0
2016-Apr-28 06:33N 40°38' W 074°10'0 0.0
2016-Apr-28 05:33N 40°38' W 074°10'0 0.0
2016-Apr-28 04:33N 40°38' W 074°10'0 0.0
2016-Apr-28 03:33N 40°38' W 074°10'0 0.0
2016-Apr-28 02:33N 40°38' W 074°10'0 0.0
2016-Apr-28 01:33N 40°38' W 074°10'2 2.3
2016-Apr-28 00:33N 40°40' W 074°08'0 0.1
2016-Apr-27 23:33N 40°40' W 074°08'0 0.0
2016-Apr-27 22:33N 40°40' W 074°08'0 0.2
2016-Apr-27 21:33N 40°40' W 074°08'2 1.9
2016-Apr-27 20:33N 40°38' W 074°08'2 1.7
2016-Apr-27 19:33N 40°38' W 074°10'0 0.0
2016-Apr-27 18:33N 40°38' W 074°10'0 0.0
2016-Apr-27 17:33N 40°38' W 074°10'0 0.0
2016-Apr-27 16:33N 40°38' W 074°10'0 0.0
2016-Apr-27 15:33N 40°38' W 074°10'0 0.0
2016-Apr-27 14:33N 40°38' W 074°10'0 0.0
2016-Apr-27 11:33N 40°38' W 074°10'0 0.0
2016-Apr-27 10:33N 40°38' W 074°10'0 0.0
2016-Apr-27 09:33N 40°38' W 074°10'0 0.0
2016-Apr-27 08:33N 40°38' W 074°10'0 0.0
2016-Apr-27 07:33N 40°38' W 074°10'0 0.0
2016-Apr-27 06:33N 40°38' W 074°10'0 0.0
2016-Apr-27 05:33N 40°38' W 074°10'0 0.0
2016-Apr-27 04:33N 40°38' W 074°10'0 0.0
2016-Apr-27 03:33N 40°38' W 074°10'0 0.0
2016-Apr-27 02:33N 40°38' W 074°10'0 0.0
2016-Apr-27 01:33N 40°38' W 074°10'0 0.0
2016-Apr-27 00:33N 40°38' W 074°10'0 0.0
2016-Apr-26 23:31N 40°38' W 074°10'0 0.0
2016-Apr-26 22:33N 40°38' W 074°10'0 0.0
2016-Apr-26 21:33N 40°38' W 074°10'2 2.4
2016-Apr-26 20:33N 40°39' W 074°07'5 1.5
2016-Apr-26 17:32N 40°37' W 074°12'4 3.7
2016-Apr-26 16:31N 40°39' W 074°09'1 1.4
2016-Apr-26 15:33N 40°38' W 074°08'2 1.8
2016-Apr-26 14:30N 40°40' W 074°08'2 2.3
2016-Apr-26 13:33N 40°38' W 074°09'0 0.4
2016-Apr-26 12:32N 40°38' W 074°10'  
Track history (hours):
 
Tides and Currents Weather Stations Pressure Air Temp Water Temp Dewpoint Dewpoint Depression Visibility Wind Speed Wind Dir Waves Ship Positions

Elizabeth Mc Allister

Owner: MC ALLISTER TOWING & TRANSPORTATION INC, NEW YORK, NY. More information available from US FCC via Universal Licensing System and Coast Guard Vessel Documentation Center.

Last reported at 2016-May-01 04:33 UTC. Time now 2016-May-01 06:08 UTC.
Position N 40°38' W 074°10'.

Length 31 m.

Type: Tug. MMSI: 362751376.

Date/timePositionNaut miles runAvg speedWind from/ knotsBaromVisibWave heightAir tempDewpointWater temp
2016-May-01 04:33N 40°38' W 074°10'0 0.0
2016-May-01 03:34N 40°38' W 074°10'0 0.0
2016-May-01 02:34N 40°38' W 074°10'0 0.0
2016-May-01 01:34N 40°38' W 074°10'0 0.0
2016-May-01 00:33N 40°38' W 074°10'0 0.0
2016-Apr-30 23:34N 40°38' W 074°10'0 0.0
2016-Apr-30 22:33N 40°38' W 074°10'0 0.0
2016-Apr-30 21:33N 40°38' W 074°10'0 0.0
2016-Apr-30 20:33N 40°38' W 074°10'0 0.0
2016-Apr-30 19:34N 40°38' W 074°10'0 0.0
2016-Apr-30 18:34N 40°38' W 074°10'0 0.0
2016-Apr-30 17:34N 40°38' W 074°10'0 0.0
2016-Apr-30 16:34N 40°38' W 074°10'0 0.0
2016-Apr-30 15:33N 40°38' W 074°10'0 0.0
2016-Apr-30 14:33N 40°38' W 074°10'0 0.0
2016-Apr-30 13:33N 40°38' W 074°10'0 0.0
2016-Apr-30 12:33N 40°38' W 074°10'0 0.0
2016-Apr-30 11:33N 40°38' W 074°10'0 0.0
2016-Apr-30 10:34N 40°38' W 074°10'0 0.0
2016-Apr-30 09:34N 40°38' W 074°10'0 0.0
2016-Apr-30 08:34N 40°38' W 074°10'0 0.0
2016-Apr-30 07:34N 40°38' W 074°10'0 0.0
2016-Apr-30 06:33N 40°38' W 074°10'0 0.0
2016-Apr-30 05:33N 40°38' W 074°10'0 0.0
2016-Apr-30 04:34N 40°38' W 074°10'0 0.0
2016-Apr-30 03:33N 40°38' W 074°10'0 0.0
2016-Apr-30 02:34N 40°38' W 074°10'0 0.0
2016-Apr-30 01:34N 40°38' W 074°10'0 0.0
2016-Apr-30 00:34N 40°38' W 074°10'0 0.0
2016-Apr-29 23:33N 40°38' W 074°10'0 0.0
2016-Apr-29 22:34N 40°38' W 074°10'0 0.0
2016-Apr-29 21:33N 40°38' W 074°10'0 0.0
2016-Apr-29 20:33N 40°38' W 074°10'0 0.0
2016-Apr-29 19:33N 40°38' W 074°10'0 0.0
2016-Apr-29 18:34N 40°38' W 074°10'1 1.3
2016-Apr-29 17:33N 40°40' W 074°09'0 0.0
2016-Apr-29 16:33N 40°40' W 074°09'1 0.8
2016-Apr-29 15:25N 40°39' W 074°09'3 0.9
2016-Apr-29 12:26N 40°37' W 074°12'3 3.2
2016-Apr-29 11:33N 40°39' W 074°09'2 2.1
2016-Apr-29 10:33N 40°41' W 074°09'2 2.1
2016-Apr-29 09:30N 40°39' W 074°08'2 0.3
2016-Apr-29 03:29N 40°38' W 074°10'0 0.0
2016-Apr-29 01:29N 40°38' W 074°10'1 0.5
2016-Apr-28 23:11N 40°39' W 074°08'3 5.1
2016-Apr-28 22:31N 40°38' W 074°04'2 2.3
2016-Apr-28 21:31N 40°39' W 074°07'2 1.3
2016-Apr-28 20:13N 40°39' W 074°09'1 1.5
2016-Apr-28 19:33N 40°40' W 074°09'2 2.0
2016-Apr-28 18:32N 40°42' W 074°08'2 2.2
2016-Apr-28 17:25N 40°39' W 074°09'1 1.3
2016-Apr-28 16:32N 40°38' W 074°10'0 0.0
2016-Apr-28 15:32N 40°38' W 074°10'0 0.0
2016-Apr-28 14:32N 40°38' W 074°10'0 0.0
2016-Apr-28 13:27N 40°38' W 074°10'0 0.0
2016-Apr-28 12:31N 40°38' W 074°10'0 0.0
2016-Apr-28 11:19N 40°38' W 074°10'0 0.0
2016-Apr-28 07:33N 40°38' W 074°10'0 0.0
2016-Apr-28 06:33N 40°38' W 074°10'0 0.0
2016-Apr-28 05:33N 40°38' W 074°10'0 0.0
2016-Apr-28 04:33N 40°38' W 074°10'0 0.0
2016-Apr-28 03:33N 40°38' W 074°10'0 0.0
2016-Apr-28 02:33N 40°38' W 074°10'0 0.0
2016-Apr-28 01:33N 40°38' W 074°10'2 2.3
2016-Apr-28 00:33N 40°40' W 074°08'0 0.1
2016-Apr-27 23:33N 40°40' W 074°08'0 0.0
2016-Apr-27 22:33N 40°40' W 074°08'0 0.2
2016-Apr-27 21:33N 40°40' W 074°08'2 1.9
2016-Apr-27 20:33N 40°38' W 074°08'2 1.7
2016-Apr-27 19:33N 40°38' W 074°10'0 0.0
2016-Apr-27 18:33N 40°38' W 074°10'0 0.0
2016-Apr-27 17:33N 40°38' W 074°10'0 0.0
2016-Apr-27 16:33N 40°38' W 074°10'0 0.0
2016-Apr-27 15:33N 40°38' W 074°10'0 0.0
2016-Apr-27 14:33N 40°38' W 074°10'0 0.0
2016-Apr-27 11:33N 40°38' W 074°10'0 0.0
2016-Apr-27 10:33N 40°38' W 074°10'0 0.0
2016-Apr-27 09:33N 40°38' W 074°10'0 0.0
2016-Apr-27 08:33N 40°38' W 074°10'0 0.0
2016-Apr-27 07:33N 40°38' W 074°10'0 0.0
2016-Apr-27 06:33N 40°38' W 074°10'0 0.0
2016-Apr-27 05:33N 40°38' W 074°10'0 0.0
2016-Apr-27 04:33N 40°38' W 074°10'0 0.0
2016-Apr-27 03:33N 40°38' W 074°10'0 0.0
2016-Apr-27 02:33N 40°38' W 074°10'0 0.0
2016-Apr-27 01:33N 40°38' W 074°10'0 0.0
2016-Apr-27 00:33N 40°38' W 074°10'0 0.0
2016-Apr-26 23:31N 40°38' W 074°10'0 0.0
2016-Apr-26 22:33N 40°38' W 074°10'0 0.0
2016-Apr-26 21:33N 40°38' W 074°10'2 2.4
2016-Apr-26 20:33N 40°39' W 074°07'5 1.5
2016-Apr-26 17:32N 40°37' W 074°12'4 3.7
2016-Apr-26 16:31N 40°39' W 074°09'1 1.4
2016-Apr-26 15:33N 40°38' W 074°08'2 1.8
2016-Apr-26 14:30N 40°40' W 074°08'2 2.3
2016-Apr-26 13:33N 40°38' W 074°09'0 0.4
2016-Apr-26 12:32N 40°38' W 074°10'  

Dump ship's entire track history